Time;durP1;ratioP1;P1;durP2;ratioP2;P2;SDS_P1;SDS_P2;PMS_P1;PMS_P2;Temp;Humidity;BMP_temperature;BMP_pressure;BME280_temperature;BME280_humidity;BME280_pressure;Samples;Min_cycle;Max_cycle;Signal;HPM_P1;HPM_P2
2023/09/04 00:02:10;;;;;;;34.72;23.10;;;;;;;;;;4974935;28;20030;-76
2023/09/04 00:04:36;;;;;;;24.38;17.63;;;;;;;;;;4974915;28;20046;-77
2023/09/04 00:07:02;;;;;;;33.17;23.83;;;;;;;;;;4973158;28;20039;-75
2023/09/04 00:09:28;;;;;;;40.80;22.95;;;;;;;;;;4974835;28;20050;-75
2023/09/04 00:11:54;;;;;;;37.22;25.52;;;;;;;;;;4989427;28;20051;-76
2023/09/04 00:14:21;;;;;;;32.50;23.35;;;;;;;;;;4957528;28;20043;-76
2023/09/04 00:16:47;;;;;;;51.88;32.45;;;;;;;;;;4974952;28;20027;-75
2023/09/04 00:19:13;;;;;;;60.50;33.15;;;;;;;;;;4973064;28;20142;-76
2023/09/04 00:21:39;;;;;;;58.17;36.10;;;;;;;;;;4973326;28;20039;-76
2023/09/04 00:24:05;;;;;;;56.75;34.92;;;;;;;;;;4957250;28;20034;-75
2023/09/04 00:26:31;;;;;;;54.65;33.60;;;;;;;;;;4957329;28;20047;-75
2023/09/04 00:28:57;;;;;;;49.95;33.30;;;;;;;;;;4989630;28;20046;-75
2023/09/04 00:31:23;;;;;;;44.40;29.60;;;;;;;;;;4975052;28;20022;-76
2023/09/04 00:33:48;;;;;;;47.70;30.10;;;;;;;;;;4973543;28;20589;-75
2023/09/04 00:36:15;;;;;;;50.15;29.95;;;;;;;;;;4956916;28;20038;-76
2023/09/04 00:38:41;;;;;;;50.40;32.70;;;;;;;;;;4974149;28;20051;-77
2023/09/04 00:41:07;;;;;;;49.15;31.20;;;;;;;;;;4974481;28;20042;-76
2023/09/04 00:43:36;;;;;;;44.20;29.02;;;;;;;;;;4957032;28;20414;-74
2023/09/04 00:46:03;;;;;;;46.40;28.73;;;;;;;;;;4989029;28;20034;-75
2023/09/04 00:48:29;;;;;;;45.05;28.95;;;;;;;;;;4974177;28;20203;-76
2023/09/04 00:50:56;;;;;;;46.88;27.25;;;;;;;;;;4972729;28;20061;-75
2023/09/04 00:53:21;;;;;;;33.97;23.40;;;;;;;;;;4973063;28;20112;-75
2023/09/04 00:55:48;;;;;;;40.58;27.67;;;;;;;;;;4974054;28;20601;-74
2023/09/04 00:58:14;;;;;;;43.30;27.45;;;;;;;;;;4973823;28;20049;-75
2023/09/04 01:00:40;;;;;;;48.83;27.77;;;;;;;;;;4956735;28;20147;-74
2023/09/04 01:03:06;;;;;;;34.38;25.70;;;;;;;;;;4988850;28;20042;-74
2023/09/04 01:05:32;;;;;;;41.95;28.48;;;;;;;;;;4956620;28;20119;-75
2023/09/04 01:08:03;;;;;;;51.05;30.95;;;;;;;;;;4972269;28;20042;-76
2023/09/04 01:10:33;;;;;;;44.00;29.33;;;;;;;;;;4973827;28;20043;-74
2023/09/04 01:13:04;;;;;;;43.13;29.37;;;;;;;;;;4973521;28;20073;-75
2023/09/04 01:15:31;;;;;;;37.00;27.75;;;;;;;;;;4975332;28;20514;-74
2023/09/04 01:17:57;;;;;;;45.63;30.35;;;;;;;;;;4973891;28;20585;-75
2023/09/04 01:20:29;;;;;;;48.55;29.60;;;;;;;;;;4976310;28;20125;-76
2023/09/04 01:22:56;;;;;;;59.67;29.60;;;;;;;;;;4974263;28;20035;-75
2023/09/04 01:25:32;;;;;;;49.80;29.80;;;;;;;;;;4956224;28;20034;-75
2023/09/04 01:28:01;;;;;;;43.95;28.50;;;;;;;;;;4988244;28;20061;-74
2023/09/04 01:30:55;;;;;;;49.03;31.20;;;;;;;;;;4972424;28;20035;-76
2023/09/04 01:33:24;;;;;;;48.38;30.38;;;;;;;;;;4973445;28;20072;-75
2023/09/04 01:35:50;;;;;;;49.13;29.48;;;;;;;;;;4973281;28;20043;-76
2023/09/04 01:38:16;;;;;;;57.40;31.65;;;;;;;;;;4956354;28;20031;-75
2023/09/04 01:40:42;;;;;;;44.00;28.05;;;;;;;;;;4973535;28;20109;-74
2023/09/04 01:43:08;;;;;;;50.55;27.98;;;;;;;;;;4974901;28;20069;-76
2023/09/04 01:45:34;;;;;;;54.28;29.65;;;;;;;;;;4961658;28;20030;-75
2023/09/04 01:48:00;;;;;;;53.28;28.75;;;;;;;;;;4986309;28;20047;-76
2023/09/04 01:50:26;;;;;;;56.35;34.92;;;;;;;;;;4968390;28;20031;-76
2023/09/04 01:52:53;;;;;;;40.90;25.42;;;;;;;;;;4973963;28;20049;-76
2023/09/04 01:55:19;;;;;;;47.17;26.35;;;;;;;;;;4971836;28;20059;-76
2023/09/04 01:57:45;;;;;;;41.55;25.08;;;;;;;;;;4973119;28;20130;-76
2023/09/04 02:00:12;;;;;;;48.58;28.30;;;;;;;;;;4971417;28;20185;-75
2023/09/04 02:02:41;;;;;;;43.53;28.70;;;;;;;;;;4972775;28;20035;-77
2023/09/04 02:05:07;;;;;;;54.25;29.75;;;;;;;;;;4972486;28;20034;-76
2023/09/04 02:07:34;;;;;;;55.38;32.40;;;;;;;;;;4971552;28;20418;-73
2023/09/04 02:10:00;;;;;;;51.85;31.33;;;;;;;;;;4972336;28;20034;-75
2023/09/04 02:12:26;;;;;;;39.67;29.05;;;;;;;;;;4971198;28;20054;-75
2023/09/04 02:14:52;;;;;;;43.10;26.08;;;;;;;;;;4987507;28;20119;-75
2023/09/04 02:17:18;;;;;;;42.83;28.13;;;;;;;;;;4971102;28;20043;-73
2023/09/04 02:19:45;;;;;;;46.60;28.83;;;;;;;;;;4970971;28;20034;-74
2023/09/04 02:22:11;;;;;;;50.97;30.13;;;;;;;;;;4986122;28;20055;-75
2023/09/04 02:24:37;;;;;;;47.50;32.25;;;;;;;;;;4972078;28;20114;-74
2023/09/04 02:27:03;;;;;;;52.38;32.30;;;;;;;;;;4972196;28;20061;-75
2023/09/04 02:29:29;;;;;;;49.33;31.10;;;;;;;;;;4970956;28;20030;-74
2023/09/04 02:31:55;;;;;;;55.28;33.72;;;;;;;;;;4972590;28;20058;-76
2023/09/04 02:34:22;;;;;;;40.63;30.27;;;;;;;;;;4972116;28;20049;-75
2023/09/04 02:36:48;;;;;;;64.78;36.78;;;;;;;;;;4971101;28;20507;-76
2023/09/04 02:39:14;;;;;;;54.20;33.90;;;;;;;;;;4970735;28;20453;-75
2023/09/04 02:41:40;;;;;;;53.70;34.38;;;;;;;;;;4972143;28;20472;-77
2023/09/04 02:44:06;;;;;;;66.15;41.90;;;;;;;;;;4971865;28;20090;-76
2023/09/04 02:46:32;;;;;;;74.45;44.80;;;;;;;;;;4987065;28;20038;-76
2023/09/04 02:48:58;;;;;;;54.80;34.53;;;;;;;;;;4971959;28;20049;-76
2023/09/04 02:51:24;;;;;;;91.70;50.35;;;;;;;;;;4970556;28;20121;-76
2023/09/04 02:53:51;;;;;;;62.63;40.10;;;;;;;;;;4970854;28;20414;-76
2023/09/04 02:56:17;;;;;;;67.80;40.78;;;;;;;;;;4971649;28;20034;-76
2023/09/04 02:58:43;;;;;;;85.15;49.08;;;;;;;;;;4972184;28;20045;-75
2023/09/04 03:01:09;;;;;;;86.22;46.53;;;;;;;;;;4969077;28;20026;-77
2023/09/04 03:03:36;;;;;;;77.28;42.33;;;;;;;;;;4968760;28;20078;-77
2023/09/04 03:06:09;;;;;;;70.25;41.95;;;;;;;;;;4969698;28;20037;-77
2023/09/04 03:08:36;;;;;;;54.97;36.33;;;;;;;;;;4971474;28;20133;-78
2023/09/04 03:11:02;;;;;;;52.50;36.38;;;;;;;;;;4969935;28;20039;-76
2023/09/04 03:13:28;;;;;;;49.60;33.78;;;;;;;;;;4967304;28;20133;-77
2023/09/04 03:15:54;;;;;;;36.42;25.40;;;;;;;;;;4950963;29;20167;-76
2023/09/04 03:18:20;;;;;;;32.28;23.55;;;;;;;;;;4950826;29;20038;-76
2023/09/04 03:20:48;;;;;;;38.97;24.35;;;;;;;;;;4934790;29;20035;-75
2023/09/04 03:23:14;;;;;;;43.42;24.17;;;;;;;;;;4951950;29;20130;-75
2023/09/04 03:25:41;;;;;;;29.58;21.63;;;;;;;;;;4934912;29;20035;-76
2023/09/04 03:28:08;;;;;;;36.25;24.27;;;;;;;;;;4933747;29;20519;-75
2023/09/04 03:30:34;;;;;;;37.00;25.80;;;;;;;;;;4955321;28;20134;-76
2023/09/04 03:33:01;;;;;;;27.42;17.42;;;;;;;;;;4950739;29;20051;-76
2023/09/04 03:35:28;;;;;;;31.55;21.33;;;;;;;;;;4934414;29;20061;-76
2023/09/04 03:37:54;;;;;;;34.75;19.60;;;;;;;;;;4951907;29;20077;-77
2023/09/04 03:40:24;;;;;;;27.95;18.70;;;;;;;;;;4950390;29;20106;-75
2023/09/04 03:42:50;;;;;;;37.53;24.10;;;;;;;;;;4956890;28;20528;-76
2023/09/04 03:45:17;;;;;;;37.67;25.00;;;;;;;;;;4953805;28;20278;-75
2023/09/04 03:47:44;;;;;;;34.53;23.25;;;;;;;;;;4969970;28;20429;-76
2023/09/04 03:50:13;;;;;;;47.35;29.02;;;;;;;;;;4969583;28;20038;-75
2023/09/04 03:52:40;;;;;;;38.43;26.00;;;;;;;;;;4971131;28;20527;-76
2023/09/04 03:55:09;;;;;;;35.03;20.20;;;;;;;;;;4970812;28;20045;-75
2023/09/04 03:57:39;;;;;;;39.28;23.35;;;;;;;;;;4969980;28;20122;-75
2023/09/04 04:00:14;;;;;;;31.13;22.45;;;;;;;;;;4933686;29;20040;-76
2023/09/04 04:02:41;;;;;;;31.70;21.02;;;;;;;;;;4951888;28;20178;-75
2023/09/04 04:05:09;;;;;;;34.65;19.95;;;;;;;;;;4950206;29;20042;-76
2023/09/04 04:07:35;;;;;;;34.55;21.20;;;;;;;;;;4934451;29;20089;-75
2023/09/04 04:10:01;;;;;;;32.65;20.40;;;;;;;;;;4950242;29;20078;-75
2023/09/04 04:12:30;;;;;;;31.88;19.27;;;;;;;;;;4934591;29;20055;-76
2023/09/04 04:15:03;;;;;;;35.10;19.20;;;;;;;;;;4934436;29;20535;-77
2023/09/04 04:17:30;;;;;;;33.65;19.95;;;;;;;;;;4953767;28;20039;-76
2023/09/04 04:19:56;;;;;;;39.05;19.55;;;;;;;;;;4954382;28;20539;-75
2023/09/04 04:22:23;;;;;;;36.50;19.02;;;;;;;;;;4966491;28;20415;-76
2023/09/04 04:24:49;;;;;;;32.75;19.08;;;;;;;;;;4950596;28;20046;-76
2023/09/04 04:27:16;;;;;;;30.67;18.25;;;;;;;;;;4971783;28;20050;-76
2023/09/04 04:29:45;;;;;;;33.20;19.38;;;;;;;;;;4950162;29;20057;-76
2023/09/04 04:32:12;;;;;;;30.13;19.15;;;;;;;;;;4982312;28;20042;-74
2023/09/04 04:34:39;;;;;;;31.20;18.35;;;;;;;;;;4951341;28;20043;-76
2023/09/04 04:37:08;;;;;;;26.73;17.33;;;;;;;;;;4966039;28;20031;-76
2023/09/04 04:39:34;;;;;;;28.67;17.05;;;;;;;;;;4950304;29;20077;-76
2023/09/04 04:42:01;;;;;;;30.45;18.30;;;;;;;;;;4982242;28;20483;-74
2023/09/04 04:44:27;;;;;;;30.05;16.45;;;;;;;;;;4949757;29;20393;-75
2023/09/04 04:46:54;;;;;;;33.20;17.90;;;;;;;;;;4985024;28;20077;-75
2023/09/04 04:49:21;;;;;;;29.77;17.17;;;;;;;;;;4954945;28;20047;-74
2023/09/04 04:51:49;;;;;;;26.10;17.30;;;;;;;;;;4953808;28;20035;-73
2023/09/04 04:54:16;;;;;;;28.60;16.98;;;;;;;;;;4953455;29;20051;-75
2023/09/04 04:56:42;;;;;;;22.05;15.93;;;;;;;;;;4953821;29;20412;-74
2023/09/04 04:59:08;;;;;;;22.30;16.20;;;;;;;;;;4953836;29;20412;-74
2023/09/04 05:01:34;;;;;;;25.00;15.93;;;;;;;;;;4962772;28;20022;-73
2023/09/04 05:04:01;;;;;;;25.40;15.25;;;;;;;;;;4975746;28;20080;-73
2023/09/04 05:06:27;;;;;;;24.95;15.35;;;;;;;;;;4972380;28;20090;-73
2023/09/04 05:08:53;;;;;;;21.45;15.10;;;;;;;;;;4973203;28;20406;-72
2023/09/04 05:11:20;;;;;;;24.05;15.55;;;;;;;;;;4955496;28;20038;-73
2023/09/04 05:13:46;;;;;;;20.83;14.30;;;;;;;;;;4972126;28;20035;-72
2023/09/04 05:16:15;;;;;;;18.00;15.00;;;;;;;;;;4971589;28;20027;-73
2023/09/04 05:18:42;;;;;;;19.15;14.30;;;;;;;;;;4971799;28;20034;-75
2023/09/04 05:21:08;;;;;;;16.25;14.50;;;;;;;;;;4971231;28;20034;-75
2023/09/04 05:23:36;;;;;;;17.40;14.73;;;;;;;;;;4997222;28;20038;-76
2023/09/04 05:26:02;;;;;;;18.10;13.95;;;;;;;;;;4974879;28;20034;-76
2023/09/04 05:28:29;;;;;;;19.35;13.55;;;;;;;;;;4970940;28;20150;-76
2023/09/04 05:31:01;;;;;;;16.10;13.25;;;;;;;;;;4972284;28;20529;-75
2023/09/04 05:33:27;;;;;;;19.52;12.05;;;;;;;;;;4970972;28;20042;-73
2023/09/04 05:35:56;;;;;;;12.98;11.07;;;;;;;;;;4975104;28;20458;-73
2023/09/04 05:38:22;;;;;;;21.00;12.65;;;;;;;;;;4990479;28;20038;-72
2023/09/04 05:40:49;;;;;;;15.32;11.95;;;;;;;;;;4973489;28;20463;-73
2023/09/04 05:43:15;;;;;;;20.50;11.65;;;;;;;;;;4970564;28;20038;-74
2023/09/04 05:45:41;;;;;;;15.60;12.05;;;;;;;;;;4970431;28;20525;-75
2023/09/04 05:48:08;;;;;;;16.15;11.40;;;;;;;;;;4972229;28;20059;-74
2023/09/04 05:50:33;;;;;;;23.05;11.30;;;;;;;;;;4954455;28;20031;-74
2023/09/04 05:53:00;;;;;;;16.85;11.48;;;;;;;;;;4971029;28;20053;-75
2023/09/04 05:55:26;;;;;;;16.95;11.45;;;;;;;;;;4970507;28;20023;-74
2023/09/04 05:57:51;;;;;;;16.33;10.98;;;;;;;;;;4969967;28;20042;-74
2023/09/04 06:00:17;;;;;;;19.08;10.93;;;;;;;;;;4970246;28;20034;-75
2023/09/04 06:02:43;;;;;;;35.00;11.50;;;;;;;;;;4986758;28;20110;-74
2023/09/04 06:05:09;;;;;;;24.80;11.00;;;;;;;;;;4971882;28;20057;-75
2023/09/04 06:07:35;;;;;;;24.70;11.75;;;;;;;;;;4970292;28;20050;-74
2023/09/04 06:10:03;;;;;;;23.08;11.88;;;;;;;;;;4971692;28;20034;-73
2023/09/04 06:12:30;;;;;;;25.23;10.90;;;;;;;;;;4970102;28;20086;-74
2023/09/04 06:14:56;;;;;;;13.82;10.88;;;;;;;;;;4959422;28;20027;-74
2023/09/04 06:17:22;;;;;;;24.30;11.10;;;;;;;;;;4964388;28;20134;-73
2023/09/04 06:19:48;;;;;;;30.48;13.27;;;;;;;;;;4971887;28;20118;-73
2023/09/04 06:22:14;;;;;;;21.85;13.48;;;;;;;;;;4971604;28;20137;-73
2023/09/04 06:24:40;;;;;;;24.48;12.57;;;;;;;;;;4971805;28;20042;-74
2023/09/04 06:27:07;;;;;;;24.92;11.43;;;;;;;;;;4971668;28;20133;-74
2023/09/04 06:29:33;;;;;;;18.45;10.18;;;;;;;;;;4970262;28;20050;-72
2023/09/04 06:31:59;;;;;;;16.25;10.05;;;;;;;;;;4971708;28;20035;-73
2023/09/04 06:34:25;;;;;;;11.25;7.43;;;;;;;;;;4970280;28;20031;-72
2023/09/04 06:36:51;;;;;;;15.85;8.25;;;;;;;;;;4970279;28;20047;-72
2023/09/04 06:39:18;;;;;;;9.05;7.97;;;;;;;;;;4969236;28;20043;-72
2023/09/04 06:41:44;;;;;;;11.60;7.90;;;;;;;;;;4971844;28;20042;-72
2023/09/04 06:44:10;;;;;;;14.93;8.95;;;;;;;;;;4986504;28;20162;-72
2023/09/04 06:46:36;;;;;;;14.05;8.73;;;;;;;;;;4970090;28;20102;-73
2023/09/04 06:49:02;;;;;;;12.60;9.10;;;;;;;;;;4970100;28;20045;-73
2023/09/04 06:51:29;;;;;;;18.35;9.07;;;;;;;;;;4971367;28;20030;-73
2023/09/04 06:53:55;;;;;;;20.42;7.88;;;;;;;;;;4971483;28;20038;-72
2023/09/04 06:56:21;;;;;;;10.30;8.00;;;;;;;;;;4971052;28;20133;-74
2023/09/04 06:58:47;;;;;;;7.93;7.13;;;;;;;;;;4971630;28;20046;-74
2023/09/04 07:01:13;;;;;;;12.93;7.53;;;;;;;;;;4958554;28;20474;-74
2023/09/04 07:03:39;;;;;;;11.52;7.47;;;;;;;;;;4953804;28;20031;-73
2023/09/04 07:06:05;;;;;;;14.20;7.93;;;;;;;;;;4970100;28;20066;-74
2023/09/04 07:08:31;;;;;;;11.32;8.07;;;;;;;;;;4969433;28;20560;-75
2023/09/04 07:10:57;;;;;;;10.35;7.85;;;;;;;;;;4952060;28;20126;-74
2023/09/04 07:13:24;;;;;;;13.40;8.13;;;;;;;;;;4970131;28;20506;-73
2023/09/04 07:15:50;;;;;;;15.00;7.30;;;;;;;;;;4948507;28;20039;-73
2023/09/04 07:18:16;;;;;;;8.35;7.18;;;;;;;;;;4939313;28;20035;-73
2023/09/04 07:20:43;;;;;;;12.93;7.30;;;;;;;;;;4961599;28;20046;-74
2023/09/04 07:23:09;;;;;;;8.90;6.40;;;;;;;;;;4961110;28;20031;-74
2023/09/04 07:25:35;;;;;;;8.13;5.35;;;;;;;;;;4964055;28;20510;-72
2023/09/04 07:28:01;;;;;;;6.95;5.70;;;;;;;;;;4977246;28;20206;-73
2023/09/04 07:30:27;;;;;;;18.27;5.60;;;;;;;;;;4962423;28;20117;-73
2023/09/04 07:32:53;;;;;;;18.67;6.80;;;;;;;;;;4958300;28;20073;-72
2023/09/04 07:35:19;;;;;;;6.55;5.65;;;;;;;;;;4960423;28;20062;-72
2023/09/04 07:37:45;;;;;;;10.48;6.40;;;;;;;;;;4958002;28;20039;-74
2023/09/04 07:40:11;;;;;;;9.18;7.30;;;;;;;;;;4969402;28;20046;-73
2023/09/04 07:42:39;;;;;;;48.50;10.77;;;;;;;;;;4969408;28;20046;-73
2023/09/04 07:45:05;;;;;;;17.30;9.52;;;;;;;;;;4970910;28;20037;-73
2023/09/04 07:47:31;;;;;;;9.60;8.07;;;;;;;;;;4970497;28;20403;-73
2023/09/04 07:49:58;;;;;;;14.82;7.65;;;;;;;;;;4970739;28;20030;-75
2023/09/04 07:52:24;;;;;;;11.93;8.20;;;;;;;;;;4970419;28;20043;-75
2023/09/04 07:54:50;;;;;;;12.77;8.30;;;;;;;;;;4970720;28;20042;-74
2023/09/04 07:57:17;;;;;;;11.35;8.32;;;;;;;;;;4970735;28;20046;-75
2023/09/04 07:59:43;;;;;;;12.98;7.85;;;;;;;;;;4969268;28;20035;-74
2023/09/04 08:02:09;;;;;;;11.95;7.03;;;;;;;;;;4969441;28;20069;-73
2023/09/04 08:04:35;;;;;;;11.73;7.20;;;;;;;;;;4970686;28;20101;-74
2023/09/04 08:07:01;;;;;;;11.65;6.72;;;;;;;;;;4968978;28;20053;-74
2023/09/04 08:09:27;;;;;;;10.57;6.55;;;;;;;;;;4953637;28;20035;-75
2023/09/04 08:11:53;;;;;;;8.18;6.45;;;;;;;;;;4975036;28;20457;-75
2023/09/04 08:14:19;;;;;;;9.77;6.78;;;;;;;;;;4978989;28;20042;-74
2023/09/04 08:16:45;;;;;;;20.88;6.90;;;;;;;;;;4977400;28;20105;-75
2023/09/04 08:19:12;;;;;;;10.48;6.68;;;;;;;;;;4954296;28;20074;-74
2023/09/04 08:21:37;;;;;;;12.82;6.00;;;;;;;;;;4969025;28;20291;-74
2023/09/04 08:24:03;;;;;;;5.97;5.22;;;;;;;;;;4965884;28;20514;-73
2023/09/04 08:26:30;;;;;;;7.72;4.90;;;;;;;;;;4969225;28;20038;-73
2023/09/04 08:28:56;;;;;;;8.77;5.70;;;;;;;;;;4958873;28;20097;-73
2023/09/04 08:31:22;;;;;;;11.73;5.40;;;;;;;;;;4971518;28;20035;-73
2023/09/04 08:33:48;;;;;;;8.55;6.10;;;;;;;;;;4972140;28;20048;-73
2023/09/04 08:36:14;;;;;;;14.13;6.30;;;;;;;;;;4970736;28;20119;-73
2023/09/04 08:38:40;;;;;;;9.07;6.43;;;;;;;;;;4973074;28;20107;-71
2023/09/04 08:41:07;;;;;;;13.60;5.47;;;;;;;;;;4955927;28;20026;-73
2023/09/04 08:43:35;;;;;;;9.93;5.05;;;;;;;;;;4967438;28;20031;-72
2023/09/04 08:46:02;;;;;;;7.13;5.70;;;;;;;;;;4963938;28;20624;-74
2023/09/04 08:48:29;;;;;;;8.75;5.80;;;;;;;;;;4967082;28;20379;-75
2023/09/04 08:50:55;;;;;;;8.60;4.82;;;;;;;;;;4951155;28;20499;-74
2023/09/04 08:53:22;;;;;;;8.20;4.18;;;;;;;;;;4956501;28;20039;-74
2023/09/04 08:55:49;;;;;;;4.55;4.15;;;;;;;;;;4986601;28;20038;-74
2023/09/04 08:58:15;;;;;;;6.40;4.70;;;;;;;;;;4970394;28;20034;-75
2023/09/04 09:00:42;;;;;;;11.65;4.45;;;;;;;;;;4970000;28;20363;-74
2023/09/04 09:03:08;;;;;;;8.60;4.57;;;;;;;;;;4970368;28;20039;-74
2023/09/04 09:05:34;;;;;;;6.72;4.75;;;;;;;;;;4987624;28;20031;-74
2023/09/04 09:08:00;;;;;;;5.80;5.20;;;;;;;;;;4973392;28;20038;-75
2023/09/04 09:10:26;;;;;;;7.88;5.00;;;;;;;;;;4972044;28;20045;-75
2023/09/04 09:12:52;;;;;;;12.55;4.55;;;;;;;;;;4971949;28;20081;-74
2023/09/04 09:15:19;;;;;;;10.57;5.47;;;;;;;;;;4972570;28;20026;-74
2023/09/04 09:17:48;;;;;;;11.82;4.88;;;;;;;;;;4973125;28;20034;-75
2023/09/04 09:20:21;;;;;;;9.77;4.68;;;;;;;;;;4972060;28;20053;-74
2023/09/04 09:22:50;;;;;;;9.27;4.70;;;;;;;;;;4973298;28;20078;-74
2023/09/04 09:25:17;;;;;;;5.90;4.87;;;;;;;;;;4988882;28;20042;-74
2023/09/04 09:27:44;;;;;;;4.70;4.20;;;;;;;;;;4973905;28;20356;-75
2023/09/04 09:30:11;;;;;;;9.57;4.35;;;;;;;;;;4974979;28;20035;-74
2023/09/04 09:32:38;;;;;;;4.90;4.20;;;;;;;;;;4974340;28;20034;-74
2023/09/04 09:35:03;;;;;;;9.55;4.30;;;;;;;;;;4956028;28;20031;-74
2023/09/04 09:37:31;;;;;;;7.90;4.70;;;;;;;;;;4963013;28;20125;-75
2023/09/04 09:39:58;;;;;;;6.07;4.20;;;;;;;;;;4971843;28;20090;-73
2023/09/04 09:42:26;;;;;;;6.55;4.03;;;;;;;;;;4973588;28;20113;-74
2023/09/04 09:44:53;;;;;;;6.03;4.23;;;;;;;;;;4975802;28;20057;-74
2023/09/04 09:47:20;;;;;;;13.02;4.05;;;;;;;;;;4956352;28;20129;-74
2023/09/04 09:49:46;;;;;;;5.45;3.38;;;;;;;;;;4969048;28;20027;-74
2023/09/04 09:52:12;;;;;;;7.68;3.65;;;;;;;;;;4965485;28;20049;-74
2023/09/04 09:54:39;;;;;;;10.25;3.92;;;;;;;;;;4972173;28;20031;-74
2023/09/04 09:57:07;;;;;;;5.07;3.65;;;;;;;;;;4973740;28;20034;-73
2023/09/04 09:59:33;;;;;;;5.22;3.42;;;;;;;;;;4972690;28;20031;-73
2023/09/04 10:01:59;;;;;;;7.82;3.85;;;;;;;;;;4955748;28;20037;-75
2023/09/04 10:04:26;;;;;;;4.78;3.78;;;;;;;;;;4968981;28;20047;-74
2023/09/04 10:06:52;;;;;;;11.57;4.07;;;;;;;;;;4971408;28;20038;-74
2023/09/04 10:09:21;;;;;;;10.75;4.20;;;;;;;;;;4987546;28;20045;-74
2023/09/04 10:11:46;;;;;;;7.38;4.18;;;;;;;;;;4971934;28;20062;-75
2023/09/04 10:14:16;;;;;;;13.57;3.92;;;;;;;;;;4972282;28;20104;-74
2023/09/04 10:16:55;;;;;;;6.47;4.10;;;;;;;;;;4970939;28;20031;-74
2023/09/04 10:19:21;;;;;;;7.78;4.55;;;;;;;;;;4971422;28;20034;-74
2023/09/04 10:21:51;;;;;;;8.50;4.40;;;;;;;;;;4955316;28;20581;-72
2023/09/04 10:24:17;;;;;;;;;;;;;;;;;;4973347;28;20034;-74
2023/09/04 10:27:03;;;;;;;4.47;3.42;;;;;;;;;;4972395;28;20298;-73
2023/09/04 10:29:30;;;;;;;5.35;4.03;;;;;;;;;;4961506;28;20058;-74
2023/09/04 10:31:56;;;;;;;5.47;4.18;;;;;;;;;;4983531;28;20042;-73
2023/09/04 10:34:22;;;;;;;10.20;4.05;;;;;;;;;;4963677;28;20035;-74
2023/09/04 10:36:49;;;;;;;4.85;3.75;;;;;;;;;;4986472;28;20077;-74
2023/09/04 10:39:15;;;;;;;4.50;3.50;;;;;;;;;;4972409;28;20031;-75
2023/09/04 10:41:41;;;;;;;5.07;3.90;;;;;;;;;;4970911;28;20034;-74
2023/09/04 10:44:10;;;;;;;5.25;3.45;;;;;;;;;;4971628;28;20101;-73
2023/09/04 10:46:38;;;;;;;12.95;3.10;;;;;;;;;;4986678;28;20045;-74
2023/09/04 10:49:04;;;;;;;6.13;3.25;;;;;;;;;;4970537;28;20041;-74
2023/09/04 10:51:34;;;;;;;5.72;3.72;;;;;;;;;;4970440;28;20039;-74
2023/09/04 10:54:12;;;;;;;9.75;4.32;;;;;;;;;;4972056;28;20042;-74
2023/09/04 10:57:07;;;;;;;3.53;3.22;;;;;;;;;;4942366;28;20035;-73
2023/09/04 10:59:52;;;;;;;10.68;3.05;;;;;;;;;;4968673;28;20479;-74
2023/09/04 11:02:28;;;;;;;5.28;2.90;;;;;;;;;;4971909;28;20117;-74
2023/09/04 11:04:54;;;;;;;5.53;2.90;;;;;;;;;;4970213;28;20117;-74
2023/09/04 11:07:20;;;;;;;6.63;3.25;;;;;;;;;;4970167;28;20046;-74
2023/09/04 11:09:53;;;;;;;7.28;3.40;;;;;;;;;;4970374;28;20129;-74
2023/09/04 11:12:20;;;;;;;3.80;3.47;;;;;;;;;;4970102;28;20054;-74
2023/09/04 11:14:47;;;;;;;4.70;3.70;;;;;;;;;;4970467;28;20039;-74
2023/09/04 11:17:16;;;;;;;6.00;3.20;;;;;;;;;;4972289;28;20043;-74
2023/09/04 11:19:43;;;;;;;7.78;3.40;;;;;;;;;;4959403;28;20089;-74
2023/09/04 11:22:16;;;;;;;4.55;3.28;;;;;;;;;;4959748;28;20042;-74
2023/09/04 11:24:42;;;;;;;8.57;3.65;;;;;;;;;;4972242;28;20039;-74
2023/09/04 11:27:08;;;;;;;5.72;3.03;;;;;;;;;;4958306;28;20190;-74
2023/09/04 11:29:34;;;;;;;4.90;3.30;;;;;;;;;;4953720;28;20039;-73
2023/09/04 11:32:01;;;;;;;4.75;3.60;;;;;;;;;;4970177;28;20026;-73
2023/09/04 11:34:27;;;;;;;4.90;3.40;;;;;;;;;;4954344;28;20043;-74
2023/09/04 11:36:54;;;;;;;7.47;3.17;;;;;;;;;;4953765;28;20105;-73
2023/09/04 11:39:20;;;;;;;5.47;3.30;;;;;;;;;;4971840;28;20030;-74
2023/09/04 11:41:50;;;;;;;3.22;2.92;;;;;;;;;;4969356;28;20462;-75
2023/09/04 11:44:16;;;;;;;3.55;3.17;;;;;;;;;;4954564;28;20077;-73
2023/09/04 11:46:42;;;;;;;6.32;3.25;;;;;;;;;;4953536;28;20085;-74
2023/09/04 11:49:08;;;;;;;3.65;3.15;;;;;;;;;;4973262;28;20110;-73
2023/09/04 11:51:35;;;;;;;5.55;3.40;;;;;;;;;;4957950;28;20471;-74
2023/09/04 11:54:05;;;;;;;5.43;2.97;;;;;;;;;;4969409;28;20054;-74
2023/09/04 11:56:31;;;;;;;3.08;2.78;;;;;;;;;;4972559;28;20046;-74
2023/09/04 11:58:57;;;;;;;6.28;2.80;;;;;;;;;;4974831;28;20038;-74
2023/09/04 12:01:24;;;;;;;3.83;2.70;;;;;;;;;;4973257;28;20065;-73
2023/09/04 12:03:52;;;;;;;8.30;3.08;;;;;;;;;;4974673;28;20050;-73
2023/09/04 12:06:19;;;;;;;6.10;2.53;;;;;;;;;;4973640;28;20046;-74
2023/09/04 12:08:45;;;;;;;5.50;2.72;;;;;;;;;;4973289;28;20654;-74
2023/09/04 12:11:11;;;;;;;6.93;2.40;;;;;;;;;;4974181;28;20026;-74
2023/09/04 12:13:37;;;;;;;4.65;3.15;;;;;;;;;;4990658;28;20049;-74
2023/09/04 12:16:06;;;;;;;3.67;2.80;;;;;;;;;;4967166;28;20455;-74
2023/09/04 12:18:39;;;;;;;7.95;2.90;;;;;;;;;;4970216;28;20038;-74
2023/09/04 12:21:05;;;;;;;2.70;2.53;;;;;;;;;;4975965;28;20454;-74
2023/09/04 12:23:39;;;;;;;7.68;3.10;;;;;;;;;;4975566;28;20125;-75
2023/09/04 12:26:06;;;;;;;8.48;3.10;;;;;;;;;;4973775;28;20057;-74
2023/09/04 12:28:32;;;;;;;5.18;2.88;;;;;;;;;;4975021;28;20415;-74
2023/09/04 12:30:58;;;;;;;3.83;2.80;;;;;;;;;;4973356;28;20046;-74
2023/09/04 12:33:26;;;;;;;5.43;2.85;;;;;;;;;;4972960;28;20043;-74
2023/09/04 12:35:56;;;;;;;6.03;2.83;;;;;;;;;;4972992;28;20646;-74
2023/09/04 12:38:23;;;;;;;5.45;3.10;;;;;;;;;;4972812;28;20038;-74
2023/09/04 12:40:49;;;;;;;4.13;2.65;;;;;;;;;;4974111;28;20121;-75
2023/09/04 12:43:15;;;;;;;5.07;2.78;;;;;;;;;;4972731;28;20075;-74
2023/09/04 12:45:42;;;;;;;4.25;2.80;;;;;;;;;;4972690;28;20234;-74
2023/09/04 12:48:14;;;;;;;3.30;2.70;;;;;;;;;;4972561;28;20083;-75
2023/09/04 12:50:40;;;;;;;2.88;2.45;;;;;;;;;;4972634;28;20026;-74
2023/09/04 12:53:06;;;;;;;2.83;2.42;;;;;;;;;;4973773;28;20039;-74
2023/09/04 12:55:32;;;;;;;10.10;2.60;;;;;;;;;;4956717;28;20162;-74
2023/09/04 12:57:59;;;;;;;8.43;2.92;;;;;;;;;;4971990;28;20487;-74
2023/09/04 13:00:27;;;;;;;16.92;4.60;;;;;;;;;;4973879;28;20055;-74
2023/09/04 13:02:54;;;;;;;3.97;2.22;;;;;;;;;;4972305;28;20041;-77
2023/09/04 13:05:20;;;;;;;7.72;3.42;;;;;;;;;;4974159;28;20065;-75
2023/09/04 13:07:46;;;;;;;3.33;3.03;;;;;;;;;;4954110;28;20106;-77
2023/09/04 13:10:12;;;;;;;8.25;3.13;;;;;;;;;;4946823;29;20106;-77
2023/09/04 13:12:39;;;;;;;4.32;3.08;;;;;;;;;;4985344;28;20515;-77
2023/09/04 13:15:05;;;;;;;3.72;2.63;;;;;;;;;;4967386;28;20534;-77
2023/09/04 13:17:31;;;;;;;8.02;2.83;;;;;;;;;;4924693;29;20546;-76
2023/09/04 13:19:57;;;;;;;5.30;2.97;;;;;;;;;;4966166;28;20487;-77
2023/09/04 13:22:24;;;;;;;6.30;3.45;;;;;;;;;;4972417;28;20055;-78
2023/09/04 13:24:50;;;;;;;4.53;2.83;;;;;;;;;;4956150;28;20481;-77
2023/09/04 13:27:16;;;;;;;3.30;2.67;;;;;;;;;;4973286;28;20047;-76
2023/09/04 13:29:43;;;;;;;4.80;2.70;;;;;;;;;;4972514;28;20039;-76
2023/09/04 13:32:11;;;;;;;4.75;3.20;;;;;;;;;;4955963;28;20041;-77
2023/09/04 13:34:37;;;;;;;3.10;2.80;;;;;;;;;;4988154;28;20042;-77
2023/09/04 13:37:03;;;;;;;5.53;3.13;;;;;;;;;;4971900;28;20038;-78
2023/09/04 13:39:29;;;;;;;6.45;2.70;;;;;;;;;;4971874;28;20085;-78
2023/09/04 13:41:55;;;;;;;5.70;2.92;;;;;;;;;;4972868;28;20039;-77
2023/09/04 13:44:25;;;;;;;3.90;2.80;;;;;;;;;;4955957;28;20499;-78
2023/09/04 13:46:51;;;;;;;3.13;2.85;;;;;;;;;;4955604;28;20093;-77
2023/09/04 13:49:17;;;;;;;5.03;2.60;;;;;;;;;;4971477;28;20112;-78
2023/09/04 13:51:44;;;;;;;2.70;2.50;;;;;;;;;;4972761;28;20106;-77
2023/09/04 13:54:11;;;;;;;3.85;3.08;;;;;;;;;;4973281;28;20534;-77
2023/09/04 13:56:37;;;;;;;4.65;2.63;;;;;;;;;;4956337;28;20042;-77
2023/09/04 13:59:03;;;;;;;3.05;2.72;;;;;;;;;;4972401;28;20049;-78
2023/09/04 14:01:29;;;;;;;3.88;2.63;;;;;;;;;;4955680;28;20514;-78
2023/09/04 14:03:56;;;;;;;4.32;2.60;;;;;;;;;;4972544;28;20113;-76
2023/09/04 14:06:22;;;;;;;3.10;2.75;;;;;;;;;;4971609;28;20034;-78
2023/09/04 14:08:48;;;;;;;7.20;2.80;;;;;;;;;;4942520;28;20102;-78
2023/09/04 14:11:14;;;;;;;3.58;2.70;;;;;;;;;;4972549;28;20407;-77
2023/09/04 14:13:41;;;;;;;4.63;3.08;;;;;;;;;;4971916;28;20089;-77
2023/09/04 14:16:07;;;;;;;3.50;2.30;;;;;;;;;;4972078;28;20525;-77
2023/09/04 14:18:33;;;;;;;3.20;2.90;;;;;;;;;;4970740;28;20104;-73
2023/09/04 14:21:02;;;;;;;3.10;2.55;;;;;;;;;;4973100;28;20053;-72
2023/09/04 14:23:28;;;;;;;4.43;3.08;;;;;;;;;;4973467;28;20392;-72
2023/09/04 14:25:54;;;;;;;3.00;2.70;;;;;;;;;;4972397;28;20510;-72
2023/09/04 14:28:21;;;;;;;6.13;2.92;;;;;;;;;;4971678;28;20133;-72